createdAt,value
2019-03-31T00:01:07.271Z,11.00
2019-03-31T00:03:25.526Z,11.00
2019-03-31T00:05:55.642Z,10.90
2019-03-31T00:08:25.732Z,10.90
2019-03-31T00:10:55.820Z,10.80
2019-03-31T00:13:28.274Z,10.90
2019-03-31T00:16:00.666Z,10.80
2019-03-31T00:18:33.569Z,10.70
2019-03-31T00:21:03.635Z,10.70
2019-03-31T00:23:34.130Z,10.60
2019-03-31T00:26:04.198Z,10.60
2019-03-31T00:28:35.712Z,10.50
2019-03-31T00:31:06.609Z,10.60
2019-03-31T00:33:36.726Z,10.50
2019-03-31T00:36:06.792Z,10.50
2019-03-31T00:38:36.838Z,10.50
2019-03-31T00:41:06.931Z,10.40
2019-03-31T00:43:37.003Z,10.40
2019-03-31T00:46:07.049Z,10.30
2019-03-31T00:48:37.116Z,10.30
2019-03-31T00:51:07.181Z,10.20
2019-03-31T00:53:37.239Z,10.20
2019-03-31T00:56:07.447Z,10.20
2019-03-31T00:58:37.498Z,10.20
2019-03-31T01:01:36.407Z,10.10
2019-03-31T01:04:01.683Z,10.00
2019-03-31T01:06:31.905Z,10.00
2019-03-31T01:09:02.245Z,10.00
2019-03-31T01:11:34.486Z,10.00
2019-03-31T01:14:05.095Z,10.00
2019-03-31T01:16:35.393Z,10.00
2019-03-31T01:19:06.971Z,9.90
2019-03-31T01:21:37.029Z,9.80
2019-03-31T01:24:07.083Z,9.80
2019-03-31T01:26:37.121Z,9.80
2019-03-31T01:29:07.291Z,9.80
2019-03-31T01:31:49.744Z,9.80
2019-03-31T01:34:09.454Z,9.70
2019-03-31T01:36:39.517Z,9.60
2019-03-31T01:39:10.091Z,9.60
2019-03-31T01:41:41.294Z,9.60
2019-03-31T01:44:11.355Z,9.70
2019-03-31T01:46:41.417Z,9.60
2019-03-31T01:49:11.692Z,9.60
2019-03-31T01:51:41.738Z,9.50
2019-03-31T01:54:11.805Z,9.50
2019-03-31T01:56:44.570Z,9.40
2019-03-31T01:59:13.563Z,9.40
2019-03-31T02:01:43.736Z,9.30
2019-03-31T02:04:13.807Z,9.30
2019-03-31T02:06:43.891Z,9.30
2019-03-31T02:09:13.955Z,9.30
2019-03-31T02:11:44.011Z,9.20
2019-03-31T02:14:14.086Z,9.00
2019-03-31T02:16:44.138Z,9.10
2019-03-31T02:19:14.214Z,9.10
2019-03-31T02:21:44.227Z,9.10
2019-03-31T02:24:14.315Z,9.00
2019-03-31T02:26:44.352Z,9.00
2019-03-31T02:29:14.450Z,8.90
2019-03-31T02:31:44.468Z,8.90
2019-03-31T02:34:14.625Z,8.90
2019-03-31T02:36:44.643Z,8.80
2019-03-31T02:39:14.695Z,8.80
2019-03-31T02:41:44.766Z,8.80
2019-03-31T02:44:14.852Z,8.80
2019-03-31T02:46:44.882Z,8.70
2019-03-31T02:49:14.980Z,8.70
2019-03-31T02:51:44.996Z,8.70
2019-03-31T02:54:15.058Z,8.60
2019-03-31T02:56:45.732Z,8.70
2019-03-31T02:59:18.508Z,8.60
2019-03-31T03:01:49.315Z,8.60
2019-03-31T03:04:20.336Z,8.60
2019-03-31T03:06:53.797Z,8.50
2019-03-31T03:09:26.495Z,8.50
2019-03-31T03:11:58.757Z,8.50
2019-03-31T03:14:30.407Z,8.40
2019-03-31T03:17:00.455Z,8.40
2019-03-31T03:19:30.547Z,8.40
2019-03-31T03:22:00.571Z,8.40
2019-03-31T03:24:30.683Z,8.30
2019-03-31T03:27:01.052Z,8.40
2019-03-31T03:29:31.157Z,8.30
2019-03-31T03:32:01.209Z,8.20
2019-03-31T03:34:32.387Z,8.20
2019-03-31T03:37:02.477Z,8.10
2019-03-31T03:39:32.511Z,8.10
2019-03-31T03:42:02.591Z,8.10
2019-03-31T03:44:32.611Z,8.10
2019-03-31T03:47:02.648Z,8.10
2019-03-31T03:49:32.676Z,8.10
2019-03-31T03:52:02.774Z,8.00
2019-03-31T03:54:32.815Z,8.00
2019-03-31T03:57:02.874Z,8.00
2019-03-31T03:59:32.858Z,8.00
2019-03-31T04:02:02.932Z,8.00
2019-03-31T04:04:32.928Z,7.90
2019-03-31T04:07:03.020Z,7.90
2019-03-31T04:09:33.076Z,7.90
2019-03-31T04:12:03.164Z,7.90
2019-03-31T04:14:33.257Z,7.80
2019-03-31T04:17:03.387Z,7.50
2019-03-31T04:19:33.448Z,7.40
2019-03-31T04:22:03.484Z,7.30
2019-03-31T04:24:34.230Z,7.10
2019-03-31T04:27:04.373Z,6.90
2019-03-31T04:29:34.460Z,6.70
2019-03-31T04:32:04.543Z,6.80
2019-03-31T04:34:34.650Z,6.80
2019-03-31T04:37:04.727Z,6.90
2019-03-31T04:39:34.819Z,6.70
2019-03-31T04:42:04.914Z,6.90
2019-03-31T04:44:35.036Z,7.00
2019-03-31T04:47:05.175Z,7.00
2019-03-31T04:49:35.225Z,7.10
2019-03-31T04:52:05.314Z,7.20
2019-03-31T04:54:37.712Z,7.30
2019-03-31T04:57:07.792Z,7.20
2019-03-31T04:59:37.907Z,7.30
2019-03-31T05:02:07.975Z,7.20
2019-03-31T05:04:38.622Z,7.40
2019-03-31T05:07:08.788Z,7.50
2019-03-31T05:09:38.906Z,7.50
2019-03-31T05:12:08.998Z,7.60
2019-03-31T05:14:39.099Z,7.80
2019-03-31T05:17:09.258Z,7.70
2019-03-31T05:19:39.339Z,7.80
2019-03-31T05:22:09.459Z,7.90
2019-03-31T05:24:39.521Z,8.00
2019-03-31T05:27:10.927Z,7.90
2019-03-31T05:29:40.951Z,8.00
2019-03-31T05:32:11.045Z,7.90
2019-03-31T05:34:41.131Z,7.90
2019-03-31T05:37:11.183Z,7.90
2019-03-31T05:39:42.724Z,8.00
2019-03-31T05:42:14.423Z,8.00
2019-03-31T05:44:44.492Z,7.90
2019-03-31T05:47:14.610Z,8.00
2019-03-31T05:49:44.736Z,8.10
2019-03-31T05:52:16.877Z,8.20
2019-03-31T05:54:46.969Z,8.20
2019-03-31T05:57:17.051Z,8.20
2019-03-31T05:59:47.167Z,8.30
2019-03-31T06:02:17.252Z,8.20
2019-03-31T06:04:47.337Z,8.10
2019-03-31T06:07:17.436Z,8.10
2019-03-31T06:09:47.506Z,8.30
2019-03-31T06:12:17.605Z,8.30
2019-03-31T06:14:47.653Z,8.40
2019-03-31T06:17:19.320Z,8.40
2019-03-31T06:19:49.351Z,8.60
2019-03-31T06:22:19.398Z,8.60
2019-03-31T06:24:49.476Z,8.50
2019-03-31T06:27:19.519Z,8.50
2019-03-31T06:29:51.853Z,8.50
2019-03-31T06:32:21.984Z,8.50
2019-03-31T06:34:52.093Z,8.80
2019-03-31T06:37:22.168Z,8.90
2019-03-31T06:39:52.230Z,8.80
2019-03-31T06:42:22.450Z,8.90
2019-03-31T06:44:52.541Z,8.90
2019-03-31T06:47:22.619Z,8.90
2019-03-31T06:49:52.693Z,9.00
2019-03-31T06:52:22.798Z,9.00
2019-03-31T06:54:52.905Z,9.00
2019-03-31T06:57:23.016Z,9.10
2019-03-31T06:59:53.059Z,9.20
2019-03-31T07:02:25.490Z,9.30
2019-03-31T07:05:01.088Z,9.30
2019-03-31T07:07:34.393Z,9.50
2019-03-31T07:10:04.997Z,9.40
2019-03-31T07:12:35.092Z,9.40
2019-03-31T07:15:06.165Z,9.40
2019-03-31T07:17:36.243Z,9.60
2019-03-31T07:20:08.777Z,9.60
2019-03-31T07:22:40.877Z,9.70
2019-03-31T07:25:12.698Z,9.90
2019-03-31T07:27:42.752Z,9.90
2019-03-31T07:30:13.691Z,10.10
2019-03-31T07:32:43.882Z,10.10
2019-03-31T07:35:18.792Z,10.00
2019-03-31T07:37:47.641Z,10.00
2019-03-31T07:40:18.563Z,10.00
2019-03-31T07:42:51.048Z,10.20
2019-03-31T07:45:20.689Z,10.50
2019-03-31T07:47:50.817Z,10.70
2019-03-31T07:50:21.294Z,10.60
2019-03-31T07:52:51.471Z,10.60
2019-03-31T07:55:21.586Z,10.70
2019-03-31T07:57:54.439Z,10.90
2019-03-31T08:00:25.228Z,10.80
2019-03-31T08:02:55.348Z,11.10
2019-03-31T08:05:32.873Z,11.10
2019-03-31T08:07:57.292Z,11.10
2019-03-31T08:10:27.438Z,11.10
2019-03-31T08:12:58.115Z,11.20
2019-03-31T08:15:28.270Z,11.10
2019-03-31T08:17:58.378Z,11.20
2019-03-31T08:20:28.516Z,11.20
2019-03-31T08:22:58.607Z,11.30
2019-03-31T08:25:28.812Z,11.40
2019-03-31T08:28:00.355Z,11.50
2019-03-31T08:30:30.381Z,11.50
2019-03-31T08:33:00.500Z,11.70
2019-03-31T08:35:30.645Z,11.60
2019-03-31T08:38:00.676Z,11.60
2019-03-31T08:40:30.748Z,11.50
2019-03-31T08:43:00.838Z,11.90
2019-03-31T08:45:30.889Z,11.90
2019-03-31T08:48:01.025Z,11.80
2019-03-31T08:50:33.206Z,12.00
2019-03-31T08:53:02.828Z,11.80
2019-03-31T08:55:32.946Z,12.10
2019-03-31T08:58:03.064Z,11.90
2019-03-31T09:00:38.892Z,12.10
2019-03-31T09:03:08.982Z,12.10
2019-03-31T09:05:39.128Z,12.20
2019-03-31T09:08:09.183Z,12.10
2019-03-31T09:10:39.295Z,11.90
2019-03-31T09:13:09.378Z,11.90
2019-03-31T09:15:39.511Z,11.90
2019-03-31T09:18:09.557Z,12.10
2019-03-31T09:20:39.742Z,11.80
2019-03-31T09:23:11.364Z,11.50
2019-03-31T09:25:41.448Z,11.70
2019-03-31T09:28:11.570Z,11.70
2019-03-31T09:30:41.656Z,11.70
2019-03-31T09:33:11.732Z,11.50
2019-03-31T09:35:41.823Z,11.50
2019-03-31T09:38:11.956Z,11.50
2019-03-31T09:40:42.047Z,11.40
2019-03-31T09:43:12.144Z,11.10
2019-03-31T09:45:42.225Z,11.50
2019-03-31T09:48:13.573Z,11.60
2019-03-31T09:50:43.599Z,11.50
2019-03-31T09:53:13.667Z,11.50
2019-03-31T09:55:43.802Z,11.60
2019-03-31T09:58:13.865Z,12.20
2019-03-31T10:00:46.411Z,12.50
2019-03-31T10:03:16.505Z,12.50
2019-03-31T10:05:48.121Z,12.80
2019-03-31T10:08:21.723Z,13.10
2019-03-31T10:10:50.057Z,13.70
2019-03-31T10:13:20.143Z,13.70
2019-03-31T10:15:50.280Z,14.00
2019-03-31T10:18:20.355Z,14.20
2019-03-31T10:20:50.496Z,14.30
2019-03-31T10:23:20.560Z,14.70
2019-03-31T10:25:50.622Z,15.00
2019-03-31T10:28:20.704Z,14.80
2019-03-31T10:30:50.798Z,15.10
2019-03-31T10:33:20.923Z,15.00
2019-03-31T10:35:50.995Z,15.00
2019-03-31T10:38:21.072Z,15.10
2019-03-31T10:40:51.154Z,15.10
2019-03-31T10:43:21.235Z,14.40
2019-03-31T10:45:51.290Z,15.00
2019-03-31T10:48:21.523Z,15.10
2019-03-31T10:50:51.635Z,15.40
2019-03-31T10:53:21.751Z,15.40
2019-03-31T10:55:51.831Z,15.60
2019-03-31T10:58:21.984Z,15.90
2019-03-31T11:00:52.033Z,15.80
2019-03-31T11:03:22.112Z,16.10
2019-03-31T11:05:52.261Z,16.30
2019-03-31T11:08:22.348Z,16.40
2019-03-31T11:10:52.474Z,16.70
2019-03-31T11:13:22.546Z,16.70
2019-03-31T11:15:57.390Z,16.90
2019-03-31T11:18:26.480Z,17.20
2019-03-31T11:20:58.136Z,17.30
2019-03-31T11:23:29.759Z,17.40
2019-03-31T11:25:59.888Z,17.10
2019-03-31T11:28:29.959Z,16.70
2019-03-31T11:31:00.054Z,16.90
2019-03-31T11:33:30.128Z,17.10
2019-03-31T11:36:00.262Z,17.00
2019-03-31T11:38:30.357Z,16.90
2019-03-31T11:41:00.409Z,17.10
2019-03-31T11:43:30.526Z,17.10
2019-03-31T11:46:00.567Z,16.90
2019-03-31T11:48:30.754Z,16.80
2019-03-31T11:51:00.791Z,16.70
2019-03-31T11:53:30.794Z,16.60
2019-03-31T11:56:00.883Z,16.50
2019-03-31T11:58:32.417Z,16.60
2019-03-31T12:01:02.726Z,16.50
2019-03-31T12:03:32.762Z,16.80
2019-03-31T12:06:02.813Z,16.90
2019-03-31T12:08:32.926Z,16.70
2019-03-31T12:11:04.559Z,16.60
2019-03-31T12:13:34.610Z,16.30
2019-03-31T12:16:04.680Z,16.10
2019-03-31T12:18:34.739Z,16.30
2019-03-31T12:21:06.198Z,16.50
2019-03-31T12:23:36.282Z,16.60
2019-03-31T12:26:06.369Z,17.00
2019-03-31T12:28:36.490Z,17.20
2019-03-31T12:31:06.665Z,17.30
2019-03-31T12:33:36.725Z,17.40
2019-03-31T12:36:09.318Z,17.50
2019-03-31T12:38:39.375Z,17.00
2019-03-31T12:41:09.404Z,16.00
2019-03-31T12:43:39.471Z,16.60
2019-03-31T12:46:09.581Z,16.70
2019-03-31T12:48:39.674Z,16.20
2019-03-31T12:51:09.731Z,14.70
2019-03-31T12:53:39.826Z,15.50
2019-03-31T12:56:09.881Z,15.90
2019-03-31T12:58:39.950Z,16.50
2019-03-31T13:01:10.015Z,15.50
2019-03-31T13:03:40.072Z,16.50
2019-03-31T13:06:10.143Z,16.70
2019-03-31T13:08:40.180Z,16.60
2019-03-31T13:11:10.252Z,16.70
2019-03-31T13:13:40.323Z,16.20
2019-03-31T13:16:10.363Z,16.40
2019-03-31T13:18:40.440Z,16.20
2019-03-31T13:21:10.494Z,16.40
2019-03-31T13:23:41.499Z,16.10
2019-03-31T13:26:11.509Z,16.10
2019-03-31T13:28:41.556Z,16.30
2019-03-31T13:31:11.562Z,16.20
2019-03-31T13:33:41.674Z,16.00
2019-03-31T13:36:11.709Z,15.60
2019-03-31T13:38:41.779Z,16.00
2019-03-31T13:41:11.822Z,15.50
2019-03-31T13:43:41.861Z,14.50
2019-03-31T13:46:11.911Z,14.80
2019-03-31T13:48:41.968Z,14.70
2019-03-31T13:51:12.027Z,13.80
2019-03-31T13:53:42.086Z,13.20
2019-03-31T13:56:12.440Z,14.20
2019-03-31T13:58:42.692Z,14.70
2019-03-31T14:01:12.794Z,15.10
2019-03-31T14:03:42.827Z,14.80
2019-03-31T14:06:12.892Z,15.00
2019-03-31T14:08:42.915Z,15.20
2019-03-31T14:11:14.528Z,14.90
2019-03-31T14:13:44.563Z,15.10
2019-03-31T14:16:16.919Z,15.10
2019-03-31T14:18:46.981Z,15.10
2019-03-31T14:21:17.004Z,14.70
2019-03-31T14:23:47.130Z,15.10
2019-03-31T14:26:17.211Z,14.90
2019-03-31T14:28:47.278Z,14.30
2019-03-31T14:31:17.638Z,14.30
2019-03-31T14:33:48.933Z,13.80
2019-03-31T14:36:18.981Z,13.10
2019-03-31T14:38:49.062Z,14.20
2019-03-31T14:41:19.134Z,14.00
2019-03-31T14:43:50.125Z,14.10
2019-03-31T14:46:20.174Z,14.00
2019-03-31T14:48:50.211Z,14.30
2019-03-31T14:51:20.278Z,14.20
2019-03-31T14:53:50.359Z,14.90
2019-03-31T14:56:20.452Z,14.70
2019-03-31T14:58:50.533Z,14.30
2019-03-31T15:01:21.417Z,14.30
2019-03-31T15:03:51.563Z,14.20
2019-03-31T15:06:21.617Z,13.70
2019-03-31T15:08:54.687Z,13.90
2019-03-31T15:11:23.372Z,14.20
2019-03-31T15:13:53.406Z,13.70
2019-03-31T15:16:23.424Z,14.20
2019-03-31T15:18:53.514Z,14.10
2019-03-31T15:21:23.559Z,13.70
2019-03-31T15:23:53.643Z,13.60
2019-03-31T15:26:23.681Z,13.20
2019-03-31T15:28:53.743Z,13.60
2019-03-31T15:31:24.208Z,14.20
2019-03-31T15:33:54.291Z,13.90
2019-03-31T15:36:24.376Z,13.90
2019-03-31T15:39:07.857Z,14.00
2019-03-31T15:41:26.275Z,13.40
2019-03-31T15:43:56.410Z,13.60
2019-03-31T15:46:26.501Z,13.00
2019-03-31T15:48:56.690Z,12.70
2019-03-31T15:51:26.863Z,13.10
2019-03-31T15:53:58.213Z,13.80
2019-03-31T15:56:28.384Z,13.60
2019-03-31T15:58:58.644Z,13.40
2019-03-31T16:01:28.771Z,13.20
2019-03-31T16:03:58.938Z,13.50
2019-03-31T16:06:29.337Z,13.00
2019-03-31T16:08:59.020Z,13.30
2019-03-31T16:11:28.756Z,13.30
2019-03-31T16:13:58.365Z,13.10
2019-03-31T16:16:30.711Z,13.10
2019-03-31T16:18:59.227Z,13.50
2019-03-31T16:21:28.802Z,13.00
2019-03-31T16:23:58.390Z,12.80
2019-03-31T16:26:28.036Z,12.90
2019-03-31T16:28:57.661Z,12.50
2019-03-31T16:31:27.226Z,13.00
2019-03-31T16:33:56.929Z,12.40
2019-03-31T16:36:26.611Z,12.60
2019-03-31T16:38:56.261Z,12.20
2019-03-31T16:41:25.935Z,12.10
2019-03-31T16:43:55.641Z,12.50
2019-03-31T16:46:25.323Z,12.50
2019-03-31T16:48:54.986Z,12.60
2019-03-31T16:51:24.601Z,12.90
2019-03-31T16:53:54.279Z,12.80
2019-03-31T16:56:23.950Z,12.60
2019-03-31T16:58:53.685Z,12.40
2019-03-31T17:01:23.360Z,12.50
2019-03-31T17:03:53.144Z,12.30
2019-03-31T17:06:22.965Z,12.50
2019-03-31T17:08:52.616Z,12.00
2019-03-31T17:11:23.126Z,12.20
2019-03-31T17:13:52.879Z,12.30
2019-03-31T17:16:22.674Z,12.40
2019-03-31T17:18:52.533Z,12.50
2019-03-31T17:21:22.382Z,12.30
2019-03-31T17:23:52.211Z,12.20
2019-03-31T17:26:21.963Z,12.30
2019-03-31T17:28:51.541Z,12.30
2019-03-31T17:31:21.228Z,12.20
2019-03-31T17:33:50.882Z,12.20
2019-03-31T17:36:20.463Z,12.20
2019-03-31T17:38:49.967Z,11.70
2019-03-31T17:41:19.569Z,11.80
2019-03-31T17:43:49.155Z,11.00
2019-03-31T17:46:18.666Z,10.80
2019-03-31T17:48:48.187Z,10.90
2019-03-31T17:51:17.763Z,11.10
2019-03-31T17:53:47.316Z,10.80
2019-03-31T17:56:16.831Z,10.50
2019-03-31T17:58:46.383Z,10.50
2019-03-31T18:01:15.922Z,10.60
2019-03-31T18:03:45.495Z,10.70
2019-03-31T18:06:15.080Z,10.70
2019-03-31T18:08:44.645Z,10.60
2019-03-31T18:11:14.272Z,10.80
2019-03-31T18:13:43.842Z,10.70
2019-03-31T18:16:13.479Z,10.60
2019-03-31T18:18:43.107Z,10.50
2019-03-31T18:21:14.619Z,10.40
2019-03-31T18:23:44.219Z,10.40
2019-03-31T18:26:13.914Z,10.60
2019-03-31T18:28:43.965Z,10.60
2019-03-31T18:31:13.646Z,10.60
2019-03-31T18:33:43.334Z,10.70
2019-03-31T18:36:13.069Z,10.70
2019-03-31T18:38:42.700Z,10.70
2019-03-31T18:41:12.421Z,10.60
2019-03-31T18:43:51.303Z,10.60
2019-03-31T18:46:13.319Z,10.50
2019-03-31T18:48:43.027Z,10.40
2019-03-31T18:51:12.805Z,10.30
2019-03-31T18:53:53.996Z,10.30
2019-03-31T18:56:42.625Z,10.30
2019-03-31T18:59:29.970Z,9.80
2019-03-31T19:02:17.541Z,8.80
2019-03-31T19:05:24.395Z,8.20
2019-03-31T19:08:10.223Z,8.10
2019-03-31T19:10:57.280Z,8.00
2019-03-31T19:14:04.296Z,7.60
2019-03-31T19:17:11.247Z,7.70
2019-03-31T19:19:54.810Z,7.60
2019-03-31T19:22:35.067Z,8.00
2019-03-31T19:25:36.553Z,7.70
2019-03-31T19:28:23.833Z,7.50
2019-03-31T19:31:01.849Z,7.50
2019-03-31T19:33:49.242Z,7.30
2019-03-31T19:36:36.636Z,7.30
2019-03-31T19:39:27.482Z,7.30
2019-03-31T19:42:13.385Z,7.50
2019-03-31T19:45:04.924Z,7.60
2019-03-31T19:48:02.422Z,7.40
2019-03-31T19:51:00.741Z,7.40
2019-03-31T19:53:47.430Z,7.60
2019-03-31T19:56:26.825Z,7.60
2019-03-31T19:59:08.783Z,7.30
2019-03-31T20:01:53.403Z,7.50
2019-03-31T20:04:44.313Z,7.70
2019-03-31T20:07:44.910Z,7.60
2019-03-31T20:10:39.753Z,7.70
2019-03-31T20:13:40.370Z,7.60
2019-03-31T20:16:20.144Z,7.60
2019-03-31T20:19:06.788Z,7.70
2019-03-31T20:21:55.347Z,7.60
2019-03-31T20:24:47.922Z,7.60
2019-03-31T20:27:36.683Z,7.50
2019-03-31T20:30:14.289Z,7.50
2019-03-31T20:32:56.366Z,7.40
2019-03-31T20:35:44.826Z,7.40
2019-03-31T20:38:39.449Z,7.40
2019-03-31T20:41:26.982Z,7.30
2019-03-31T20:43:56.813Z,7.30
2019-03-31T20:46:26.382Z,7.30
2019-03-31T20:48:55.953Z,7.30
2019-03-31T20:51:25.460Z,7.20
2019-03-31T20:53:56.082Z,7.10
2019-03-31T20:56:25.645Z,7.10
2019-03-31T20:58:55.104Z,7.10
2019-03-31T21:01:24.704Z,7.10
2019-03-31T21:03:54.186Z,7.00
2019-03-31T21:06:23.717Z,6.90
2019-03-31T21:08:56.214Z,6.90
2019-03-31T21:11:25.769Z,6.70
2019-03-31T21:13:56.950Z,6.50
2019-03-31T21:16:26.473Z,6.40
2019-03-31T21:18:56.089Z,6.50
2019-03-31T21:21:25.606Z,6.40
2019-03-31T21:23:55.154Z,6.50
2019-03-31T21:26:24.725Z,6.40
2019-03-31T21:28:54.287Z,6.40
2019-03-31T21:31:23.815Z,6.30
2019-03-31T21:33:55.163Z,6.10
2019-03-31T21:36:29.949Z,6.20
2019-03-31T21:39:05.574Z,6.20
2019-03-31T21:41:39.318Z,6.30
2019-03-31T21:44:08.909Z,6.20
2019-03-31T21:46:38.425Z,6.10
2019-03-31T21:49:07.919Z,6.10
2019-03-31T21:51:37.452Z,6.10
2019-03-31T21:54:06.953Z,6.10
2019-03-31T21:56:36.534Z,6.00
2019-03-31T21:59:06.082Z,6.10
2019-03-31T22:01:35.554Z,6.10
2019-03-31T22:04:05.028Z,6.00
2019-03-31T22:06:34.583Z,6.00
2019-03-31T22:09:07.627Z,5.90
2019-03-31T22:11:37.151Z,5.90
2019-03-31T22:14:10.267Z,5.80
2019-03-31T22:16:37.959Z,5.80
2019-03-31T22:19:07.513Z,5.70
2019-03-31T22:21:38.321Z,5.70
2019-03-31T22:24:07.938Z,5.60
2019-03-31T22:26:37.665Z,5.60
2019-03-31T22:29:07.290Z,5.50
2019-03-31T22:31:36.833Z,5.50
2019-03-31T22:34:06.389Z,5.50
2019-03-31T22:36:35.914Z,5.50
2019-03-31T22:39:06.442Z,5.30
2019-03-31T22:41:35.976Z,5.30
2019-03-31T22:44:05.658Z,5.20
2019-03-31T22:46:35.169Z,5.10
2019-03-31T22:49:04.717Z,5.20
2019-03-31T22:51:34.243Z,5.20
2019-03-31T22:54:03.812Z,5.10
2019-03-31T22:56:33.347Z,5.10
2019-03-31T22:59:02.860Z,5.00
2019-03-31T23:01:32.371Z,5.00
2019-03-31T23:04:01.878Z,5.00
2019-03-31T23:06:31.402Z,4.90
2019-03-31T23:09:02.148Z,4.80
2019-03-31T23:11:33.484Z,4.80
2019-03-31T23:14:06.328Z,4.80
2019-03-31T23:16:35.865Z,4.80
2019-03-31T23:19:06.700Z,4.70
2019-03-31T23:21:36.215Z,4.60
2019-03-31T23:24:05.753Z,4.50
2019-03-31T23:26:35.253Z,4.50
2019-03-31T23:29:04.773Z,4.50
2019-03-31T23:31:34.283Z,4.50
2019-03-31T23:34:03.841Z,4.40
2019-03-31T23:36:33.405Z,4.40
2019-03-31T23:39:04.589Z,4.30
2019-03-31T23:41:34.077Z,4.10
2019-03-31T23:44:03.594Z,4.10
2019-03-31T23:46:33.100Z,4.20
2019-03-31T23:49:02.611Z,4.20
2019-03-31T23:51:32.138Z,4.10
2019-03-31T23:54:01.674Z,4.10
2019-03-31T23:56:32.646Z,4.00
2019-03-31T23:59:02.325Z,4.00
